sensor_id;sensor_type;location;lat;lon;timestamp;P1;durP1;ratioP1;P2;durP2;ratioP2
15383;SDS011;7790;53.022;12.968;2023-06-10T00:00:49;8.03;;;2.40;;
15383;SDS011;7790;53.022;12.968;2023-06-10T00:04:51;6.00;;;2.80;;
15383;SDS011;7790;53.022;12.968;2023-06-10T00:08:52;6.00;;;2.80;;
15383;SDS011;7790;53.022;12.968;2023-06-10T00:12:53;5.00;;;2.47;;
15383;SDS011;7790;53.022;12.968;2023-06-10T00:16:55;7.07;;;2.97;;
15383;SDS011;7790;53.022;12.968;2023-06-10T00:20:57;4.97;;;3.07;;
15383;SDS011;7790;53.022;12.968;2023-06-10T00:25:05;8.30;;;3.10;;
15383;SDS011;7790;53.022;12.968;2023-06-10T00:29:06;5.80;;;2.93;;
15383;SDS011;7790;53.022;12.968;2023-06-10T00:33:08;5.50;;;2.83;;
15383;SDS011;7790;53.022;12.968;2023-06-10T00:37:09;4.50;;;2.77;;
15383;SDS011;7790;53.022;12.968;2023-06-10T00:41:09;5.03;;;2.80;;
15383;SDS011;7790;53.022;12.968;2023-06-10T00:45:10;5.67;;;2.67;;
15383;SDS011;7790;53.022;12.968;2023-06-10T00:49:11;3.53;;;2.43;;
15383;SDS011;7790;53.022;12.968;2023-06-10T00:53:12;5.23;;;2.60;;
15383;SDS011;7790;53.022;12.968;2023-06-10T00:57:13;6.20;;;2.80;;
15383;SDS011;7790;53.022;12.968;2023-06-10T01:01:14;4.53;;;2.67;;
15383;SDS011;7790;53.022;12.968;2023-06-10T01:05:15;5.23;;;2.80;;
15383;SDS011;7790;53.022;12.968;2023-06-10T01:09:32;5.00;;;2.43;;
15383;SDS011;7790;53.022;12.968;2023-06-10T01:13:42;8.77;;;2.97;;
15383;SDS011;7790;53.022;12.968;2023-06-10T01:17:53;9.80;;;3.03;;
15383;SDS011;7790;53.022;12.968;2023-06-10T01:21:55;5.57;;;2.70;;
15383;SDS011;7790;53.022;12.968;2023-06-10T01:26:00;5.40;;;2.67;;
15383;SDS011;7790;53.022;12.968;2023-06-10T01:30:17;4.77;;;2.67;;
15383;SDS011;7790;53.022;12.968;2023-06-10T01:34:23;5.57;;;2.67;;
15383;SDS011;7790;53.022;12.968;2023-06-10T01:38:29;4.10;;;2.40;;
15383;SDS011;7790;53.022;12.968;2023-06-10T01:42:34;3.67;;;2.60;;
15383;SDS011;7790;53.022;12.968;2023-06-10T01:46:36;5.97;;;2.90;;
15383;SDS011;7790;53.022;12.968;2023-06-10T01:50:37;5.27;;;2.63;;
15383;SDS011;7790;53.022;12.968;2023-06-10T01:54:38;7.43;;;2.60;;
15383;SDS011;7790;53.022;12.968;2023-06-10T01:58:39;4.37;;;2.50;;
15383;SDS011;7790;53.022;12.968;2023-06-10T02:02:40;5.97;;;2.50;;
15383;SDS011;7790;53.022;12.968;2023-06-10T02:06:41;5.50;;;2.93;;
15383;SDS011;7790;53.022;12.968;2023-06-10T02:10:42;5.83;;;2.43;;
15383;SDS011;7790;53.022;12.968;2023-06-10T02:14:43;6.40;;;2.60;;
15383;SDS011;7790;53.022;12.968;2023-06-10T02:18:44;6.63;;;2.80;;
15383;SDS011;7790;53.022;12.968;2023-06-10T02:22:46;6.27;;;2.77;;
15383;SDS011;7790;53.022;12.968;2023-06-10T02:26:47;6.57;;;2.73;;
15383;SDS011;7790;53.022;12.968;2023-06-10T02:30:48;4.93;;;2.43;;
15383;SDS011;7790;53.022;12.968;2023-06-10T02:34:49;4.87;;;2.77;;
15383;SDS011;7790;53.022;12.968;2023-06-10T02:38:51;5.53;;;2.67;;
15383;SDS011;7790;53.022;12.968;2023-06-10T02:42:52;5.40;;;3.00;;
15383;SDS011;7790;53.022;12.968;2023-06-10T02:46:53;5.00;;;2.90;;
15383;SDS011;7790;53.022;12.968;2023-06-10T02:50:55;6.33;;;2.90;;
15383;SDS011;7790;53.022;12.968;2023-06-10T02:55:06;7.53;;;2.83;;
15383;SDS011;7790;53.022;12.968;2023-06-10T02:59:07;7.50;;;2.67;;
15383;SDS011;7790;53.022;12.968;2023-06-10T03:03:08;5.87;;;2.60;;
15383;SDS011;7790;53.022;12.968;2023-06-10T03:07:19;4.40;;;2.93;;
15383;SDS011;7790;53.022;12.968;2023-06-10T03:11:22;6.87;;;3.07;;
15383;SDS011;7790;53.022;12.968;2023-06-10T03:15:24;8.00;;;2.77;;
15383;SDS011;7790;53.022;12.968;2023-06-10T03:19:25;5.53;;;2.50;;
15383;SDS011;7790;53.022;12.968;2023-06-10T03:23:28;4.93;;;2.73;;
15383;SDS011;7790;53.022;12.968;2023-06-10T03:27:30;5.80;;;2.80;;
15383;SDS011;7790;53.022;12.968;2023-06-10T03:31:34;4.17;;;2.40;;
15383;SDS011;7790;53.022;12.968;2023-06-10T03:35:38;5.50;;;3.10;;
15383;SDS011;7790;53.022;12.968;2023-06-10T03:39:40;5.30;;;3.30;;
15383;SDS011;7790;53.022;12.968;2023-06-10T03:43:41;4.57;;;2.83;;
15383;SDS011;7790;53.022;12.968;2023-06-10T03:47:43;5.43;;;2.87;;
15383;SDS011;7790;53.022;12.968;2023-06-10T03:51:47;5.73;;;2.60;;
15383;SDS011;7790;53.022;12.968;2023-06-10T03:55:48;8.50;;;2.83;;
15383;SDS011;7790;53.022;12.968;2023-06-10T03:59:53;5.00;;;2.90;;
15383;SDS011;7790;53.022;12.968;2023-06-10T04:03:55;5.67;;;2.70;;
15383;SDS011;7790;53.022;12.968;2023-06-10T04:07:56;5.80;;;2.67;;
15383;SDS011;7790;53.022;12.968;2023-06-10T04:11:57;5.60;;;2.57;;
15383;SDS011;7790;53.022;12.968;2023-06-10T04:15:59;8.43;;;3.10;;
15383;SDS011;7790;53.022;12.968;2023-06-10T04:20:00;7.83;;;2.93;;
15383;SDS011;7790;53.022;12.968;2023-06-10T04:24:02;5.43;;;2.53;;
15383;SDS011;7790;53.022;12.968;2023-06-10T04:28:03;6.70;;;2.97;;
15383;SDS011;7790;53.022;12.968;2023-06-10T04:32:05;6.93;;;3.37;;
15383;SDS011;7790;53.022;12.968;2023-06-10T04:36:07;6.87;;;2.97;;
15383;SDS011;7790;53.022;12.968;2023-06-10T04:40:10;4.57;;;2.63;;
15383;SDS011;7790;53.022;12.968;2023-06-10T04:44:12;4.80;;;2.80;;
15383;SDS011;7790;53.022;12.968;2023-06-10T04:48:14;4.80;;;2.73;;
15383;SDS011;7790;53.022;12.968;2023-06-10T04:52:15;4.67;;;2.53;;
15383;SDS011;7790;53.022;12.968;2023-06-10T04:56:16;7.77;;;2.77;;
15383;SDS011;7790;53.022;12.968;2023-06-10T05:00:17;4.03;;;2.70;;
15383;SDS011;7790;53.022;12.968;2023-06-10T05:04:18;5.27;;;3.00;;
15383;SDS011;7790;53.022;12.968;2023-06-10T05:08:21;5.53;;;2.80;;
15383;SDS011;7790;53.022;12.968;2023-06-10T05:12:22;5.43;;;2.77;;
15383;SDS011;7790;53.022;12.968;2023-06-10T05:16:23;4.97;;;2.50;;
15383;SDS011;7790;53.022;12.968;2023-06-10T05:20:24;5.50;;;3.13;;
15383;SDS011;7790;53.022;12.968;2023-06-10T05:24:26;4.40;;;2.70;;
15383;SDS011;7790;53.022;12.968;2023-06-10T05:28:26;7.67;;;2.93;;
15383;SDS011;7790;53.022;12.968;2023-06-10T05:32:27;4.33;;;2.70;;
15383;SDS011;7790;53.022;12.968;2023-06-10T05:36:28;5.60;;;2.60;;
15383;SDS011;7790;53.022;12.968;2023-06-10T05:40:29;6.30;;;3.03;;
15383;SDS011;7790;53.022;12.968;2023-06-10T05:44:30;5.60;;;2.97;;
15383;SDS011;7790;53.022;12.968;2023-06-10T05:48:31;3.63;;;2.53;;
15383;SDS011;7790;53.022;12.968;2023-06-10T05:52:35;7.33;;;3.03;;
15383;SDS011;7790;53.022;12.968;2023-06-10T05:56:36;7.47;;;3.27;;
15383;SDS011;7790;53.022;12.968;2023-06-10T06:00:38;6.03;;;2.73;;
15383;SDS011;7790;53.022;12.968;2023-06-10T06:04:39;4.30;;;2.90;;
15383;SDS011;7790;53.022;12.968;2023-06-10T06:08:40;7.67;;;3.00;;
15383;SDS011;7790;53.022;12.968;2023-06-10T06:12:41;7.57;;;3.37;;
15383;SDS011;7790;53.022;12.968;2023-06-10T06:16:41;5.10;;;2.90;;
15383;SDS011;7790;53.022;12.968;2023-06-10T06:20:42;5.57;;;3.30;;
15383;SDS011;7790;53.022;12.968;2023-06-10T06:24:43;4.63;;;2.60;;
15383;SDS011;7790;53.022;12.968;2023-06-10T06:28:44;4.77;;;2.83;;
15383;SDS011;7790;53.022;12.968;2023-06-10T06:32:46;5.53;;;2.57;;
15383;SDS011;7790;53.022;12.968;2023-06-10T06:36:46;4.93;;;2.47;;
15383;SDS011;7790;53.022;12.968;2023-06-10T06:40:47;4.10;;;2.73;;
15383;SDS011;7790;53.022;12.968;2023-06-10T06:44:48;5.17;;;3.10;;
15383;SDS011;7790;53.022;12.968;2023-06-10T06:48:49;6.40;;;3.17;;
15383;SDS011;7790;53.022;12.968;2023-06-10T06:52:50;5.57;;;2.97;;
15383;SDS011;7790;53.022;12.968;2023-06-10T06:56:51;5.57;;;3.00;;
15383;SDS011;7790;53.022;12.968;2023-06-10T07:00:52;4.93;;;3.00;;
15383;SDS011;7790;53.022;12.968;2023-06-10T07:04:54;5.17;;;3.03;;
15383;SDS011;7790;53.022;12.968;2023-06-10T07:08:56;6.93;;;3.40;;
15383;SDS011;7790;53.022;12.968;2023-06-10T07:12:58;6.57;;;3.20;;
15383;SDS011;7790;53.022;12.968;2023-06-10T07:16:59;5.10;;;3.07;;
15383;SDS011;7790;53.022;12.968;2023-06-10T07:20:59;6.93;;;3.43;;
15383;SDS011;7790;53.022;12.968;2023-06-10T07:25:00;7.57;;;3.50;;
15383;SDS011;7790;53.022;12.968;2023-06-10T07:29:02;8.30;;;4.10;;
15383;SDS011;7790;53.022;12.968;2023-06-10T07:33:02;9.37;;;4.63;;
15383;SDS011;7790;53.022;12.968;2023-06-10T07:37:04;23.70;;;5.60;;
15383;SDS011;7790;53.022;12.968;2023-06-10T07:41:05;6.23;;;3.57;;
15383;SDS011;7790;53.022;12.968;2023-06-10T07:45:06;8.57;;;3.40;;
15383;SDS011;7790;53.022;12.968;2023-06-10T07:49:07;7.77;;;4.23;;
15383;SDS011;7790;53.022;12.968;2023-06-10T07:53:08;9.73;;;3.70;;
15383;SDS011;7790;53.022;12.968;2023-06-10T07:57:08;6.77;;;3.63;;
15383;SDS011;7790;53.022;12.968;2023-06-10T08:01:10;5.57;;;3.63;;
15383;SDS011;7790;53.022;12.968;2023-06-10T08:05:10;6.23;;;3.80;;
15383;SDS011;7790;53.022;12.968;2023-06-10T08:09:11;7.97;;;3.90;;
15383;SDS011;7790;53.022;12.968;2023-06-10T08:13:12;4.27;;;3.67;;
15383;SDS011;7790;53.022;12.968;2023-06-10T08:17:13;6.57;;;3.80;;
15383;SDS011;7790;53.022;12.968;2023-06-10T08:21:14;6.43;;;3.80;;
15383;SDS011;7790;53.022;12.968;2023-06-10T08:25:15;5.90;;;3.63;;
15383;SDS011;7790;53.022;12.968;2023-06-10T08:29:16;4.93;;;3.73;;
15383;SDS011;7790;53.022;12.968;2023-06-10T08:33:17;4.07;;;3.40;;
15383;SDS011;7790;53.022;12.968;2023-06-10T08:37:18;6.00;;;4.13;;
15383;SDS011;7790;53.022;12.968;2023-06-10T08:41:19;6.43;;;3.87;;
15383;SDS011;7790;53.022;12.968;2023-06-10T08:45:27;5.03;;;3.93;;
15383;SDS011;7790;53.022;12.968;2023-06-10T08:49:37;5.57;;;4.13;;
15383;SDS011;7790;53.022;12.968;2023-06-10T08:53:53;6.37;;;4.10;;
15383;SDS011;7790;53.022;12.968;2023-06-10T08:58:02;5.40;;;3.90;;
15383;SDS011;7790;53.022;12.968;2023-06-10T09:02:05;5.40;;;3.70;;
15383;SDS011;7790;53.022;12.968;2023-06-10T09:06:08;6.17;;;4.50;;
15383;SDS011;7790;53.022;12.968;2023-06-10T09:10:10;5.50;;;4.10;;
15383;SDS011;7790;53.022;12.968;2023-06-10T09:14:11;5.20;;;3.70;;
15383;SDS011;7790;53.022;12.968;2023-06-10T09:18:13;4.97;;;3.70;;
15383;SDS011;7790;53.022;12.968;2023-06-10T09:22:14;6.53;;;4.03;;
15383;SDS011;7790;53.022;12.968;2023-06-10T09:26:15;25.93;;;4.20;;
15383;SDS011;7790;53.022;12.968;2023-06-10T09:30:26;5.83;;;4.50;;
15383;SDS011;7790;53.022;12.968;2023-06-10T09:34:28;4.50;;;3.80;;
15383;SDS011;7790;53.022;12.968;2023-06-10T09:38:30;6.43;;;4.53;;
15383;SDS011;7790;53.022;12.968;2023-06-10T09:42:33;5.13;;;4.07;;
15383;SDS011;7790;53.022;12.968;2023-06-10T09:46:35;3.87;;;3.57;;
15383;SDS011;7790;53.022;12.968;2023-06-10T09:50:43;5.30;;;4.13;;
15383;SDS011;7790;53.022;12.968;2023-06-10T09:54:44;4.80;;;4.10;;
15383;SDS011;7790;53.022;12.968;2023-06-10T09:58:45;4.20;;;3.77;;
15383;SDS011;7790;53.022;12.968;2023-06-10T10:02:47;6.23;;;4.33;;
15383;SDS011;7790;53.022;12.968;2023-06-10T10:06:49;4.40;;;4.00;;
15383;SDS011;7790;53.022;12.968;2023-06-10T10:10:50;5.97;;;4.13;;
15383;SDS011;7790;53.022;12.968;2023-06-10T10:14:50;4.83;;;4.20;;
15383;SDS011;7790;53.022;12.968;2023-06-10T10:18:54;4.63;;;4.10;;
15383;SDS011;7790;53.022;12.968;2023-06-10T10:22:56;5.83;;;3.87;;
15383;SDS011;7790;53.022;12.968;2023-06-10T10:26:59;4.17;;;3.77;;
15383;SDS011;7790;53.022;12.968;2023-06-10T10:31:08;4.27;;;3.63;;
15383;SDS011;7790;53.022;12.968;2023-06-10T10:35:12;6.90;;;3.90;;
15383;SDS011;7790;53.022;12.968;2023-06-10T10:39:23;4.00;;;3.70;;
15383;SDS011;7790;53.022;12.968;2023-06-10T10:43:26;4.60;;;4.20;;
15383;SDS011;7790;53.022;12.968;2023-06-10T10:47:29;4.30;;;3.90;;
15383;SDS011;7790;53.022;12.968;2023-06-10T10:51:33;4.50;;;3.83;;
15383;SDS011;7790;53.022;12.968;2023-06-10T10:55:35;4.97;;;3.83;;
15383;SDS011;7790;53.022;12.968;2023-06-10T11:00:09;3.80;;;3.50;;
15383;SDS011;7790;53.022;12.968;2023-06-10T11:04:06;4.10;;;3.70;;
15383;SDS011;7790;53.022;12.968;2023-06-10T11:08:08;4.47;;;4.07;;
15383;SDS011;7790;53.022;12.968;2023-06-10T11:12:09;6.37;;;4.43;;
15383;SDS011;7790;53.022;12.968;2023-06-10T11:16:10;5.90;;;4.50;;
15383;SDS011;7790;53.022;12.968;2023-06-10T11:24:49;4.87;;;4.27;;
15383;SDS011;7790;53.022;12.968;2023-06-10T11:32:54;3.80;;;3.50;;
15383;SDS011;7790;53.022;12.968;2023-06-10T11:36:56;4.50;;;4.00;;
15383;SDS011;7790;53.022;12.968;2023-06-10T11:40:57;4.10;;;3.70;;
15383;SDS011;7790;53.022;12.968;2023-06-10T11:44:59;5.33;;;3.60;;
15383;SDS011;7790;53.022;12.968;2023-06-10T11:49:03;4.30;;;3.90;;
15383;SDS011;7790;53.022;12.968;2023-06-10T11:53:07;3.60;;;3.30;;
15383;SDS011;7790;53.022;12.968;2023-06-10T11:57:08;4.33;;;3.70;;
15383;SDS011;7790;53.022;12.968;2023-06-10T12:01:10;4.23;;;3.80;;
15383;SDS011;7790;53.022;12.968;2023-06-10T12:05:14;4.30;;;3.67;;
15383;SDS011;7790;53.022;12.968;2023-06-10T12:13:26;3.93;;;3.63;;
15383;SDS011;7790;53.022;12.968;2023-06-10T12:21:36;4.10;;;3.70;;
15383;SDS011;7790;53.022;12.968;2023-06-10T12:25:37;3.93;;;3.63;;
15383;SDS011;7790;53.022;12.968;2023-06-10T12:29:38;4.00;;;3.60;;
15383;SDS011;7790;53.022;12.968;2023-06-10T12:33:39;4.13;;;3.53;;
15383;SDS011;7790;53.022;12.968;2023-06-10T12:37:42;3.40;;;3.10;;
15383;SDS011;7790;53.022;12.968;2023-06-10T12:41:47;4.47;;;4.07;;
15383;SDS011;7790;53.022;12.968;2023-06-10T12:45:49;3.90;;;3.60;;
15383;SDS011;7790;53.022;12.968;2023-06-10T12:49:50;4.03;;;3.73;;
15383;SDS011;7790;53.022;12.968;2023-06-10T12:53:50;4.40;;;3.87;;
15383;SDS011;7790;53.022;12.968;2023-06-10T12:57:52;14.98;;;4.80;;
15383;SDS011;7790;53.022;12.968;2023-06-10T13:01:54;7.77;;;4.80;;
15383;SDS011;7790;53.022;12.968;2023-06-10T13:05:55;10.23;;;4.87;;
15383;SDS011;7790;53.022;12.968;2023-06-10T13:09:56;6.80;;;4.77;;
15383;SDS011;7790;53.022;12.968;2023-06-10T13:13:58;8.07;;;4.37;;
15383;SDS011;7790;53.022;12.968;2023-06-10T13:17:58;8.70;;;4.33;;
15383;SDS011;7790;53.022;12.968;2023-06-10T13:22:00;11.83;;;4.90;;
15383;SDS011;7790;53.022;12.968;2023-06-10T13:26:01;8.13;;;4.40;;
15383;SDS011;7790;53.022;12.968;2023-06-10T13:30:03;4.83;;;4.13;;
15383;SDS011;7790;53.022;12.968;2023-06-10T13:34:05;8.77;;;4.80;;
15383;SDS011;7790;53.022;12.968;2023-06-10T13:38:06;12.10;;;4.47;;
15383;SDS011;7790;53.022;12.968;2023-06-10T13:42:07;11.10;;;4.70;;
15383;SDS011;7790;53.022;12.968;2023-06-10T13:46:09;8.47;;;4.10;;
15383;SDS011;7790;53.022;12.968;2023-06-10T13:50:09;5.60;;;3.97;;
15383;SDS011;7790;53.022;12.968;2023-06-10T13:54:10;5.77;;;4.50;;
15383;SDS011;7790;53.022;12.968;2023-06-10T13:58:14;5.70;;;4.43;;
15383;SDS011;7790;53.022;12.968;2023-06-10T14:02:15;4.77;;;4.20;;
15383;SDS011;7790;53.022;12.968;2023-06-10T14:06:17;5.30;;;4.20;;
15383;SDS011;7790;53.022;12.968;2023-06-10T14:10:19;7.90;;;4.70;;
15383;SDS011;7790;53.022;12.968;2023-06-10T14:14:19;6.03;;;4.57;;
15383;SDS011;7790;53.022;12.968;2023-06-10T14:18:21;5.10;;;4.60;;
15383;SDS011;7790;53.022;12.968;2023-06-10T14:22:22;6.50;;;4.40;;
15383;SDS011;7790;53.022;12.968;2023-06-10T14:26:23;5.47;;;4.20;;
15383;SDS011;7790;53.022;12.968;2023-06-10T14:30:24;5.13;;;4.40;;
15383;SDS011;7790;53.022;12.968;2023-06-10T14:34:25;8.63;;;4.70;;
15383;SDS011;7790;53.022;12.968;2023-06-10T14:38:33;7.40;;;4.50;;
15383;SDS011;7790;53.022;12.968;2023-06-10T14:42:34;5.33;;;4.47;;
15383;SDS011;7790;53.022;12.968;2023-06-10T14:46:35;7.50;;;4.47;;
15383;SDS011;7790;53.022;12.968;2023-06-10T14:50:36;7.50;;;4.27;;
15383;SDS011;7790;53.022;12.968;2023-06-10T14:54:37;8.93;;;4.43;;
15383;SDS011;7790;53.022;12.968;2023-06-10T14:58:38;6.57;;;4.33;;
15383;SDS011;7790;53.022;12.968;2023-06-10T15:02:39;11.20;;;5.10;;
15383;SDS011;7790;53.022;12.968;2023-06-10T15:06:40;8.27;;;4.30;;
15383;SDS011;7790;53.022;12.968;2023-06-10T15:10:42;6.30;;;4.27;;
15383;SDS011;7790;53.022;12.968;2023-06-10T15:14:43;6.33;;;4.30;;
15383;SDS011;7790;53.022;12.968;2023-06-10T15:18:44;5.30;;;4.80;;
15383;SDS011;7790;53.022;12.968;2023-06-10T15:22:45;4.43;;;4.03;;
15383;SDS011;7790;53.022;12.968;2023-06-10T15:26:46;7.30;;;4.50;;
15383;SDS011;7790;53.022;12.968;2023-06-10T15:30:47;4.37;;;3.70;;
15383;SDS011;7790;53.022;12.968;2023-06-10T15:34:48;5.23;;;4.00;;
15383;SDS011;7790;53.022;12.968;2023-06-10T15:38:48;4.23;;;3.77;;
15383;SDS011;7790;53.022;12.968;2023-06-10T15:42:50;5.73;;;4.03;;
15383;SDS011;7790;53.022;12.968;2023-06-10T15:46:51;5.03;;;4.50;;
15383;SDS011;7790;53.022;12.968;2023-06-10T15:50:52;4.53;;;4.10;;
15383;SDS011;7790;53.022;12.968;2023-06-10T15:54:53;8.20;;;4.03;;
15383;SDS011;7790;53.022;12.968;2023-06-10T15:58:53;4.23;;;3.53;;
15383;SDS011;7790;53.022;12.968;2023-06-10T16:02:54;7.80;;;4.60;;
15383;SDS011;7790;53.022;12.968;2023-06-10T16:06:55;10.13;;;4.40;;
15383;SDS011;7790;53.022;12.968;2023-06-10T16:10:57;8.60;;;4.67;;
15383;SDS011;7790;53.022;12.968;2023-06-10T16:14:59;7.13;;;4.63;;
15383;SDS011;7790;53.022;12.968;2023-06-10T16:19:00;8.83;;;4.40;;
15383;SDS011;7790;53.022;12.968;2023-06-10T16:23:04;5.70;;;4.57;;
15383;SDS011;7790;53.022;12.968;2023-06-10T16:27:05;12.67;;;4.93;;
15383;SDS011;7790;53.022;12.968;2023-06-10T16:31:07;8.17;;;4.70;;
15383;SDS011;7790;53.022;12.968;2023-06-10T16:35:08;6.90;;;4.60;;
15383;SDS011;7790;53.022;12.968;2023-06-10T16:39:09;7.00;;;4.30;;
15383;SDS011;7790;53.022;12.968;2023-06-10T16:43:10;6.80;;;4.33;;
15383;SDS011;7790;53.022;12.968;2023-06-10T16:47:10;11.67;;;4.53;;
15383;SDS011;7790;53.022;12.968;2023-06-10T16:51:11;7.77;;;4.20;;
15383;SDS011;7790;53.022;12.968;2023-06-10T16:55:12;4.73;;;4.07;;
15383;SDS011;7790;53.022;12.968;2023-06-10T16:59:13;7.07;;;4.17;;
15383;SDS011;7790;53.022;12.968;2023-06-10T17:03:14;6.17;;;4.33;;
15383;SDS011;7790;53.022;12.968;2023-06-10T17:07:15;13.37;;;4.83;;
15383;SDS011;7790;53.022;12.968;2023-06-10T17:11:17;8.83;;;4.40;;
15383;SDS011;7790;53.022;12.968;2023-06-10T17:15:17;5.03;;;3.97;;
15383;SDS011;7790;53.022;12.968;2023-06-10T17:19:18;5.53;;;4.20;;
15383;SDS011;7790;53.022;12.968;2023-06-10T17:23:19;4.47;;;4.03;;
15383;SDS011;7790;53.022;12.968;2023-06-10T17:27:20;7.40;;;4.03;;
15383;SDS011;7790;53.022;12.968;2023-06-10T17:31:21;13.07;;;4.97;;
15383;SDS011;7790;53.022;12.968;2023-06-10T17:35:22;13.30;;;4.30;;
15383;SDS011;7790;53.022;12.968;2023-06-10T17:39:23;9.90;;;4.43;;
15383;SDS011;7790;53.022;12.968;2023-06-10T17:43:23;6.93;;;3.93;;
15383;SDS011;7790;53.022;12.968;2023-06-10T17:47:25;4.77;;;4.00;;
15383;SDS011;7790;53.022;12.968;2023-06-10T17:51:26;7.47;;;4.40;;
15383;SDS011;7790;53.022;12.968;2023-06-10T17:55:26;9.63;;;4.17;;
15383;SDS011;7790;53.022;12.968;2023-06-10T17:59:27;24.80;;;5.93;;
15383;SDS011;7790;53.022;12.968;2023-06-10T18:03:28;17.57;;;4.67;;
15383;SDS011;7790;53.022;12.968;2023-06-10T18:07:29;7.67;;;3.90;;
15383;SDS011;7790;53.022;12.968;2023-06-10T18:11:30;14.30;;;3.83;;
15383;SDS011;7790;53.022;12.968;2023-06-10T18:15:31;9.07;;;4.20;;
15383;SDS011;7790;53.022;12.968;2023-06-10T18:19:32;12.97;;;4.47;;
15383;SDS011;7790;53.022;12.968;2023-06-10T18:23:33;14.43;;;4.27;;
15383;SDS011;7790;53.022;12.968;2023-06-10T18:27:34;6.83;;;3.73;;
15383;SDS011;7790;53.022;12.968;2023-06-10T18:31:35;15.07;;;4.73;;
15383;SDS011;7790;53.022;12.968;2023-06-10T18:35:35;13.97;;;5.40;;
15383;SDS011;7790;53.022;12.968;2023-06-10T18:39:38;10.80;;;5.93;;
15383;SDS011;7790;53.022;12.968;2023-06-10T18:43:39;26.40;;;12.17;;
15383;SDS011;7790;53.022;12.968;2023-06-10T18:47:40;60.23;;;37.37;;
15383;SDS011;7790;53.022;12.968;2023-06-10T18:51:41;99.27;;;66.53;;
15383;SDS011;7790;53.022;12.968;2023-06-10T18:55:42;106.40;;;68.27;;
15383;SDS011;7790;53.022;12.968;2023-06-10T18:59:42;71.87;;;55.77;;
15383;SDS011;7790;53.022;12.968;2023-06-10T19:03:43;67.07;;;48.87;;
15383;SDS011;7790;53.022;12.968;2023-06-10T19:07:44;42.53;;;32.20;;
15383;SDS011;7790;53.022;12.968;2023-06-10T19:11:45;40.20;;;27.73;;
15383;SDS011;7790;53.022;12.968;2023-06-10T19:15:46;22.20;;;17.47;;
15383;SDS011;7790;53.022;12.968;2023-06-10T19:19:47;20.00;;;12.10;;
15383;SDS011;7790;53.022;12.968;2023-06-10T19:23:48;13.40;;;9.67;;
15383;SDS011;7790;53.022;12.968;2023-06-10T19:27:48;16.83;;;9.20;;
15383;SDS011;7790;53.022;12.968;2023-06-10T19:31:49;11.90;;;7.67;;
15383;SDS011;7790;53.022;12.968;2023-06-10T19:35:50;10.83;;;4.20;;
15383;SDS011;7790;53.022;12.968;2023-06-10T19:39:51;11.93;;;4.47;;
15383;SDS011;7790;53.022;12.968;2023-06-10T19:43:52;5.57;;;3.80;;
15383;SDS011;7790;53.022;12.968;2023-06-10T19:47:53;7.77;;;4.30;;
15383;SDS011;7790;53.022;12.968;2023-06-10T19:51:53;4.23;;;3.10;;
15383;SDS011;7790;53.022;12.968;2023-06-10T19:55:54;7.70;;;4.10;;
15383;SDS011;7790;53.022;12.968;2023-06-10T19:59:55;7.87;;;3.40;;
15383;SDS011;7790;53.022;12.968;2023-06-10T20:03:56;7.03;;;5.23;;
15383;SDS011;7790;53.022;12.968;2023-06-10T20:07:57;24.63;;;21.17;;
15383;SDS011;7790;53.022;12.968;2023-06-10T20:11:57;11.17;;;6.63;;
15383;SDS011;7790;53.022;12.968;2023-06-10T20:15:58;10.80;;;4.87;;
15383;SDS011;7790;53.022;12.968;2023-06-10T20:19:59;14.93;;;6.07;;
15383;SDS011;7790;53.022;12.968;2023-06-10T20:24:01;7.37;;;4.63;;
15383;SDS011;7790;53.022;12.968;2023-06-10T20:28:02;7.87;;;4.13;;
15383;SDS011;7790;53.022;12.968;2023-06-10T20:32:02;8.60;;;4.37;;
15383;SDS011;7790;53.022;12.968;2023-06-10T20:36:04;6.77;;;4.10;;
15383;SDS011;7790;53.022;12.968;2023-06-10T20:40:05;9.73;;;4.17;;
15383;SDS011;7790;53.022;12.968;2023-06-10T20:44:06;6.57;;;4.10;;
15383;SDS011;7790;53.022;12.968;2023-06-10T20:48:07;5.97;;;3.53;;
15383;SDS011;7790;53.022;12.968;2023-06-10T20:52:08;6.60;;;3.80;;
15383;SDS011;7790;53.022;12.968;2023-06-10T20:56:09;6.83;;;3.17;;
15383;SDS011;7790;53.022;12.968;2023-06-10T21:00:13;7.03;;;3.53;;
15383;SDS011;7790;53.022;12.968;2023-06-10T21:04:14;5.70;;;2.90;;
15383;SDS011;7790;53.022;12.968;2023-06-10T21:08:15;7.63;;;3.20;;
15383;SDS011;7790;53.022;12.968;2023-06-10T21:12:16;4.83;;;3.00;;
15383;SDS011;7790;53.022;12.968;2023-06-10T21:16:17;5.10;;;2.70;;
15383;SDS011;7790;53.022;12.968;2023-06-10T21:20:18;4.53;;;3.10;;
15383;SDS011;7790;53.022;12.968;2023-06-10T21:24:19;4.13;;;2.97;;
15383;SDS011;7790;53.022;12.968;2023-06-10T21:28:19;5.20;;;3.10;;
15383;SDS011;7790;53.022;12.968;2023-06-10T21:32:20;5.10;;;2.80;;
15383;SDS011;7790;53.022;12.968;2023-06-10T21:36:21;5.77;;;3.03;;
15383;SDS011;7790;53.022;12.968;2023-06-10T21:40:22;3.97;;;2.80;;
15383;SDS011;7790;53.022;12.968;2023-06-10T21:44:23;3.83;;;2.77;;
15383;SDS011;7790;53.022;12.968;2023-06-10T21:48:24;5.37;;;3.00;;
15383;SDS011;7790;53.022;12.968;2023-06-10T21:52:25;3.73;;;2.43;;
15383;SDS011;7790;53.022;12.968;2023-06-10T21:56:27;3.50;;;2.70;;
15383;SDS011;7790;53.022;12.968;2023-06-10T22:00:32;4.97;;;2.53;;
15383;SDS011;7790;53.022;12.968;2023-06-10T22:04:33;3.27;;;2.17;;
15383;SDS011;7790;53.022;12.968;2023-06-10T22:08:35;5.17;;;2.37;;
15383;SDS011;7790;53.022;12.968;2023-06-10T22:12:35;4.50;;;2.40;;
15383;SDS011;7790;53.022;12.968;2023-06-10T22:16:36;6.80;;;2.63;;
15383;SDS011;7790;53.022;12.968;2023-06-10T22:20:37;4.03;;;2.40;;
15383;SDS011;7790;53.022;12.968;2023-06-10T22:24:38;3.97;;;2.50;;
15383;SDS011;7790;53.022;12.968;2023-06-10T22:28:39;3.83;;;2.30;;
15383;SDS011;7790;53.022;12.968;2023-06-10T22:32:40;2.77;;;2.10;;
15383;SDS011;7790;53.022;12.968;2023-06-10T22:36:40;3.40;;;2.30;;
15383;SDS011;7790;53.022;12.968;2023-06-10T22:40:41;4.87;;;2.23;;
15383;SDS011;7790;53.022;12.968;2023-06-10T22:44:42;2.53;;;2.20;;
15383;SDS011;7790;53.022;12.968;2023-06-10T22:48:43;4.77;;;2.20;;
15383;SDS011;7790;53.022;12.968;2023-06-10T22:52:44;6.07;;;2.77;;
15383;SDS011;7790;53.022;12.968;2023-06-10T22:56:45;3.93;;;2.33;;
15383;SDS011;7790;53.022;12.968;2023-06-10T23:00:46;4.33;;;2.37;;
15383;SDS011;7790;53.022;12.968;2023-06-10T23:04:52;6.27;;;2.30;;
15383;SDS011;7790;53.022;12.968;2023-06-10T23:08:57;3.60;;;2.30;;
15383;SDS011;7790;53.022;12.968;2023-06-10T23:12:58;4.67;;;2.23;;
15383;SDS011;7790;53.022;12.968;2023-06-10T23:16:59;4.67;;;2.20;;
15383;SDS011;7790;53.022;12.968;2023-06-10T23:21:01;4.50;;;2.37;;
15383;SDS011;7790;53.022;12.968;2023-06-10T23:25:02;3.27;;;2.10;;
15383;SDS011;7790;53.022;12.968;2023-06-10T23:29:04;4.87;;;2.27;;
15383;SDS011;7790;53.022;12.968;2023-06-10T23:33:05;2.60;;;1.93;;
15383;SDS011;7790;53.022;12.968;2023-06-10T23:37:06;4.30;;;2.40;;
15383;SDS011;7790;53.022;12.968;2023-06-10T23:41:11;2.60;;;1.90;;
15383;SDS011;7790;53.022;12.968;2023-06-10T23:45:14;4.30;;;1.90;;
15383;SDS011;7790;53.022;12.968;2023-06-10T23:49:15;3.27;;;2.00;;
15383;SDS011;7790;53.022;12.968;2023-06-10T23:53:15;3.50;;;2.30;;
15383;SDS011;7790;53.022;12.968;2023-06-10T23:57:16;3.77;;;2.47;;
